createdAt,value
2017-11-19T00:01:41.425Z,4.00
2017-11-19T00:04:08.953Z,4.00
2017-11-19T00:06:36.456Z,4.00
2017-11-19T00:09:04.171Z,4.00
2017-11-19T00:11:31.704Z,4.00
2017-11-19T00:13:59.207Z,4.00
2017-11-19T00:16:26.772Z,3.90
2017-11-19T00:18:54.285Z,3.90
2017-11-19T00:21:21.783Z,3.90
2017-11-19T00:23:49.316Z,3.90
2017-11-19T00:26:17.296Z,3.90
2017-11-19T00:28:44.803Z,3.80
2017-11-19T00:31:13.103Z,3.80
2017-11-19T00:33:40.792Z,3.80
2017-11-19T00:36:08.291Z,3.80
2017-11-19T00:38:35.845Z,3.80
2017-11-19T00:41:03.348Z,3.80
2017-11-19T00:43:31.607Z,3.70
2017-11-19T00:45:59.164Z,3.80
2017-11-19T00:48:27.176Z,3.80
2017-11-19T00:50:54.682Z,3.70
2017-11-19T00:53:22.499Z,3.80
2017-11-19T00:55:50.008Z,3.70
2017-11-19T00:58:17.508Z,3.80
2017-11-19T01:00:45.047Z,3.70
2017-11-19T01:03:12.547Z,3.80
2017-11-19T01:05:40.113Z,3.80
2017-11-19T01:08:07.612Z,3.80
2017-11-19T01:10:35.880Z,3.80
2017-11-19T01:13:05.228Z,3.80
2017-11-19T01:15:33.704Z,3.70
2017-11-19T01:18:01.215Z,3.70
2017-11-19T01:20:28.804Z,3.60
2017-11-19T01:22:56.308Z,3.60
2017-11-19T01:25:23.817Z,3.50
2017-11-19T01:27:51.371Z,3.50
2017-11-19T01:30:18.884Z,3.40
2017-11-19T01:32:47.547Z,3.40
2017-11-19T01:35:15.128Z,3.30
2017-11-19T01:37:42.637Z,3.20
2017-11-19T01:40:10.139Z,3.20
2017-11-19T01:42:37.680Z,3.20
2017-11-19T01:45:05.208Z,3.20
2017-11-19T01:47:33.136Z,3.20
2017-11-19T01:50:00.701Z,3.10
2017-11-19T01:52:28.315Z,3.10
2017-11-19T01:54:55.940Z,3.10
2017-11-19T01:57:23.472Z,3.10
2017-11-19T01:59:50.976Z,3.20
2017-11-19T02:02:31.480Z,3.20
2017-11-19T02:04:58.991Z,3.20
2017-11-19T02:07:26.496Z,3.20
2017-11-19T02:09:54.047Z,3.20
2017-11-19T02:12:21.555Z,3.10
2017-11-19T02:14:49.091Z,3.10
2017-11-19T02:17:16.642Z,3.10
2017-11-19T02:19:44.140Z,3.10
2017-11-19T02:22:11.647Z,3.20
2017-11-19T02:24:39.210Z,3.20
2017-11-19T02:27:07.188Z,3.20
2017-11-19T02:29:35.462Z,3.20
2017-11-19T02:32:03.069Z,3.20
2017-11-19T02:34:30.580Z,3.20
2017-11-19T02:36:58.080Z,3.20
2017-11-19T02:39:25.645Z,3.20
2017-11-19T02:41:53.145Z,3.30
2017-11-19T02:44:21.011Z,3.30
2017-11-19T02:46:48.609Z,3.30
2017-11-19T02:49:17.013Z,3.40
2017-11-19T02:51:44.977Z,3.40
2017-11-19T02:54:12.538Z,3.40
2017-11-19T02:56:40.756Z,3.40
2017-11-19T02:59:08.735Z,3.40
2017-11-19T03:01:36.848Z,3.50
2017-11-19T03:04:04.357Z,3.40
2017-11-19T03:06:31.857Z,3.50
2017-11-19T03:08:59.481Z,3.50
2017-11-19T03:11:27.023Z,3.40
2017-11-19T03:13:54.528Z,3.40
2017-11-19T03:16:22.076Z,3.50
2017-11-19T03:18:49.583Z,3.50
2017-11-19T03:21:17.081Z,3.50
2017-11-19T03:23:44.791Z,3.50
2017-11-19T03:26:12.608Z,3.50
2017-11-19T03:28:41.336Z,3.50
2017-11-19T03:31:09.257Z,3.40
2017-11-19T03:33:36.764Z,3.40
2017-11-19T03:36:04.265Z,3.40
2017-11-19T03:38:32.451Z,3.40
2017-11-19T03:40:59.957Z,3.30
2017-11-19T03:43:27.460Z,3.40
2017-11-19T03:45:55.360Z,3.30
2017-11-19T03:48:23.637Z,3.40
2017-11-19T03:50:51.141Z,3.40
2017-11-19T03:53:18.701Z,3.40
2017-11-19T03:55:46.726Z,3.30
2017-11-19T03:58:14.248Z,3.30
2017-11-19T04:00:42.493Z,3.30
2017-11-19T04:03:10.017Z,3.20
2017-11-19T04:05:37.523Z,3.10
2017-11-19T04:08:05.021Z,3.10
2017-11-19T04:10:32.567Z,3.10
2017-11-19T04:13:00.073Z,3.10
2017-11-19T04:15:27.573Z,3.10
2017-11-19T04:17:55.255Z,3.10
2017-11-19T04:20:22.759Z,3.20
2017-11-19T04:22:50.268Z,3.20
2017-11-19T04:25:18.233Z,3.20
2017-11-19T04:27:45.738Z,3.20
2017-11-19T04:30:13.250Z,3.30
2017-11-19T04:32:40.820Z,3.30
2017-11-19T04:35:08.324Z,3.30
2017-11-19T04:37:35.824Z,3.40
2017-11-19T04:40:03.799Z,3.50
2017-11-19T04:42:31.305Z,3.40
2017-11-19T04:44:58.799Z,3.40
2017-11-19T04:47:26.908Z,3.40
2017-11-19T04:49:54.424Z,3.40
2017-11-19T04:52:21.976Z,3.50
2017-11-19T04:54:49.902Z,3.60
2017-11-19T04:57:17.648Z,3.50
2017-11-19T04:59:45.204Z,3.50
2017-11-19T05:02:12.712Z,3.50
2017-11-19T05:04:40.219Z,3.40
2017-11-19T05:07:07.793Z,3.40
2017-11-19T05:09:35.294Z,3.40
2017-11-19T05:12:02.797Z,3.30
2017-11-19T05:14:31.040Z,3.40
2017-11-19T05:16:58.558Z,3.40
2017-11-19T05:19:26.066Z,3.50
2017-11-19T05:21:54.378Z,3.50
2017-11-19T05:24:21.889Z,3.50
2017-11-19T05:26:49.392Z,3.40
2017-11-19T05:29:17.771Z,3.40
2017-11-19T05:31:45.300Z,3.30
2017-11-19T05:34:12.800Z,3.30
2017-11-19T05:36:40.328Z,3.30
2017-11-19T05:39:07.839Z,3.40
2017-11-19T05:41:35.376Z,3.30
2017-11-19T05:44:03.419Z,3.40
2017-11-19T05:46:30.923Z,3.30
2017-11-19T05:48:58.421Z,3.30
2017-11-19T05:51:25.973Z,3.30
2017-11-19T05:53:53.826Z,3.20
2017-11-19T05:56:21.328Z,3.40
2017-11-19T05:58:48.669Z,3.40
2017-11-19T06:01:16.652Z,3.40
2017-11-19T06:03:44.181Z,3.40
2017-11-19T06:06:12.484Z,3.40
2017-11-19T06:08:39.989Z,3.40
2017-11-19T06:11:07.497Z,3.30
2017-11-19T06:13:35.059Z,3.20
2017-11-19T06:16:03.174Z,3.20
2017-11-19T06:18:30.681Z,3.30
2017-11-19T06:20:58.256Z,3.30
2017-11-19T06:23:25.985Z,3.40
2017-11-19T06:25:53.498Z,3.60
2017-11-19T06:28:21.045Z,3.50
2017-11-19T06:30:48.557Z,3.60
2017-11-19T06:33:16.067Z,3.80
2017-11-19T06:35:43.632Z,3.90
2017-11-19T06:38:11.580Z,3.90
2017-11-19T06:40:39.382Z,4.00
2017-11-19T06:43:06.930Z,4.00
2017-11-19T06:45:34.440Z,3.90
2017-11-19T06:48:02.712Z,3.90
2017-11-19T06:50:31.029Z,3.80
2017-11-19T06:52:58.532Z,3.80
2017-11-19T06:55:26.224Z,3.80
2017-11-19T06:57:53.756Z,4.00
2017-11-19T07:00:21.400Z,3.70
2017-11-19T07:02:48.900Z,3.70
2017-11-19T07:05:16.461Z,3.50
2017-11-19T07:07:43.972Z,3.30
2017-11-19T07:10:11.564Z,3.20
2017-11-19T07:12:39.110Z,3.20
2017-11-19T07:15:06.635Z,3.20
2017-11-19T07:17:34.584Z,3.20
2017-11-19T07:20:02.097Z,3.20
2017-11-19T07:22:30.385Z,3.20
2017-11-19T07:24:58.720Z,3.20
2017-11-19T07:27:26.220Z,3.20
2017-11-19T07:29:53.725Z,3.30
2017-11-19T07:32:21.281Z,3.40
2017-11-19T07:34:48.789Z,3.40
2017-11-19T07:37:16.303Z,3.40
2017-11-19T07:39:43.830Z,3.50
2017-11-19T07:42:11.353Z,3.50
2017-11-19T07:44:38.908Z,3.60
2017-11-19T07:47:06.460Z,3.60
2017-11-19T07:49:33.962Z,3.70
2017-11-19T07:52:06.304Z,3.80
2017-11-19T07:54:33.808Z,3.80
2017-11-19T07:57:01.326Z,3.90
2017-11-19T07:59:29.624Z,4.00
2017-11-19T08:01:58.581Z,3.90
2017-11-19T08:04:26.094Z,3.90
2017-11-19T08:06:53.657Z,3.90
2017-11-19T08:09:21.359Z,3.90
2017-11-19T08:11:48.619Z,3.80
2017-11-19T08:14:16.179Z,3.90
2017-11-19T08:16:43.680Z,3.90
2017-11-19T08:19:11.180Z,4.00
2017-11-19T08:21:38.715Z,4.20
2017-11-19T08:24:06.221Z,4.20
2017-11-19T08:26:33.745Z,4.50
2017-11-19T08:29:01.224Z,4.60
2017-11-19T08:31:28.732Z,4.90
2017-11-19T08:33:56.240Z,5.20
2017-11-19T08:36:23.784Z,5.30
2017-11-19T08:38:51.288Z,5.30
2017-11-19T08:41:18.792Z,5.60
2017-11-19T08:43:47.057Z,5.50
2017-11-19T08:46:14.565Z,5.40
2017-11-19T08:48:42.845Z,5.30
2017-11-19T08:51:10.397Z,5.30
2017-11-19T08:53:37.899Z,5.10
2017-11-19T08:56:05.407Z,5.00
2017-11-19T08:58:33.456Z,4.90
2017-11-19T09:01:00.973Z,4.70
2017-11-19T09:03:28.479Z,4.70
2017-11-19T09:05:56.032Z,4.70
2017-11-19T09:08:24.305Z,4.90
2017-11-19T09:10:51.811Z,4.80
2017-11-19T09:13:19.803Z,4.70
2017-11-19T09:15:47.314Z,4.70
2017-11-19T09:18:14.823Z,4.70
2017-11-19T09:20:42.380Z,4.70
2017-11-19T09:23:09.889Z,4.70
2017-11-19T09:25:37.393Z,4.70
2017-11-19T09:28:04.971Z,4.80
2017-11-19T09:30:32.481Z,4.80
2017-11-19T09:32:59.981Z,4.90
2017-11-19T09:35:27.540Z,4.90
2017-11-19T09:37:56.281Z,4.90
2017-11-19T09:40:23.789Z,4.90
2017-11-19T09:42:51.363Z,4.90
2017-11-19T09:45:18.902Z,4.90
2017-11-19T09:47:46.393Z,4.90
2017-11-19T09:50:13.940Z,4.90
2017-11-19T09:52:41.441Z,4.80
2017-11-19T09:55:08.948Z,4.80
2017-11-19T09:57:36.713Z,4.90
2017-11-19T10:00:04.217Z,4.80
2017-11-19T10:02:32.032Z,4.90
2017-11-19T10:05:00.256Z,4.90
2017-11-19T10:07:27.772Z,5.00
2017-11-19T10:09:55.320Z,4.80
2017-11-19T10:12:23.228Z,4.80
2017-11-19T10:14:51.489Z,4.80
2017-11-19T10:17:20.576Z,4.80
2017-11-19T10:19:49.828Z,4.90
2017-11-19T10:22:17.325Z,4.90
2017-11-19T10:24:45.240Z,5.00
2017-11-19T10:27:12.892Z,5.30
2017-11-19T10:29:40.401Z,5.40
2017-11-19T10:32:07.941Z,5.30
2017-11-19T10:34:35.510Z,5.30
2017-11-19T10:37:03.010Z,5.40
2017-11-19T10:39:30.348Z,5.60
2017-11-19T10:41:57.845Z,5.80
2017-11-19T10:44:25.352Z,5.70
2017-11-19T10:46:53.021Z,5.70
2017-11-19T10:49:20.620Z,5.90
2017-11-19T10:51:48.116Z,6.00
2017-11-19T10:54:15.657Z,6.00
2017-11-19T10:56:43.159Z,6.00
2017-11-19T10:59:10.665Z,6.20
2017-11-19T11:01:38.225Z,6.20
2017-11-19T11:04:05.728Z,6.20
2017-11-19T11:06:33.236Z,6.60
2017-11-19T11:09:00.808Z,6.60
2017-11-19T11:11:28.317Z,6.50
2017-11-19T11:13:55.820Z,6.30
2017-11-19T11:16:24.163Z,6.20
2017-11-19T11:18:51.665Z,6.20
2017-11-19T11:21:19.169Z,6.20
2017-11-19T11:23:46.735Z,6.10
2017-11-19T11:26:14.236Z,5.90
2017-11-19T11:28:42.459Z,6.00
2017-11-19T11:31:10.033Z,6.10
2017-11-19T11:33:37.551Z,6.30
2017-11-19T11:36:05.053Z,6.40
2017-11-19T11:38:33.103Z,6.50
2017-11-19T11:41:00.914Z,6.60
2017-11-19T11:43:28.424Z,6.60
2017-11-19T11:45:56.084Z,6.60
2017-11-19T11:48:23.601Z,6.50
2017-11-19T11:50:51.560Z,6.40
2017-11-19T11:53:19.480Z,6.30
2017-11-19T11:55:46.984Z,6.10
2017-11-19T11:58:14.485Z,6.10
2017-11-19T12:00:42.024Z,6.10
2017-11-19T12:03:09.528Z,6.10
2017-11-19T12:05:37.030Z,6.00
2017-11-19T12:08:04.718Z,6.10
2017-11-19T12:10:32.992Z,6.20
2017-11-19T12:13:01.256Z,6.30
2017-11-19T12:15:29.132Z,6.30
2017-11-19T12:17:56.636Z,6.30
2017-11-19T12:20:24.137Z,6.30
2017-11-19T12:22:51.711Z,6.10
2017-11-19T12:25:19.216Z,6.20
2017-11-19T12:27:46.721Z,6.40
2017-11-19T12:30:14.261Z,6.40
2017-11-19T12:32:41.769Z,6.50
2017-11-19T12:35:09.268Z,6.50
2017-11-19T12:37:36.837Z,6.60
2017-11-19T12:40:04.336Z,6.80
2017-11-19T12:42:31.849Z,6.60
2017-11-19T12:44:59.561Z,6.50
2017-11-19T12:47:27.061Z,6.40
2017-11-19T12:49:54.560Z,6.30
2017-11-19T12:52:22.101Z,6.20
2017-11-19T12:54:49.604Z,6.10
2017-11-19T12:57:17.120Z,6.10
2017-11-19T12:59:44.665Z,6.20
2017-11-19T13:02:12.170Z,6.30
2017-11-19T13:04:39.681Z,6.40
2017-11-19T13:07:07.513Z,6.50
2017-11-19T13:09:35.015Z,6.60
2017-11-19T13:12:03.220Z,7.00
2017-11-19T13:14:30.756Z,7.40
2017-11-19T13:16:58.261Z,7.30
2017-11-19T13:19:25.765Z,7.00
2017-11-19T13:21:53.313Z,6.90
2017-11-19T13:24:20.825Z,7.00
2017-11-19T13:26:48.328Z,7.00
2017-11-19T13:29:15.873Z,7.10
2017-11-19T13:31:43.389Z,6.80
2017-11-19T13:34:10.901Z,6.60
2017-11-19T13:36:38.465Z,6.50
2017-11-19T13:39:05.981Z,6.50
2017-11-19T13:41:33.484Z,6.50
2017-11-19T13:44:00.801Z,6.60
2017-11-19T13:46:28.460Z,6.40
2017-11-19T13:48:55.965Z,6.40
2017-11-19T13:51:23.509Z,6.30
2017-11-19T13:53:51.012Z,6.40
2017-11-19T13:56:18.515Z,6.40
2017-11-19T13:58:47.794Z,6.40
2017-11-19T14:01:16.171Z,6.30
2017-11-19T14:03:43.680Z,6.30
2017-11-19T14:06:11.245Z,6.40
2017-11-19T14:08:38.744Z,6.30
2017-11-19T14:11:06.258Z,6.30
2017-11-19T14:13:33.808Z,6.30
2017-11-19T14:16:01.308Z,6.30
2017-11-19T14:18:28.820Z,6.20
2017-11-19T14:20:56.381Z,6.20
2017-11-19T14:23:23.888Z,6.20
2017-11-19T14:25:51.406Z,6.30
2017-11-19T14:28:18.956Z,6.30
2017-11-19T14:30:46.460Z,6.20
2017-11-19T14:33:13.973Z,6.30
2017-11-19T14:35:41.532Z,6.30
2017-11-19T14:38:09.032Z,6.30
2017-11-19T14:40:36.629Z,6.20
2017-11-19T14:43:04.156Z,6.20
2017-11-19T14:45:31.816Z,6.20
2017-11-19T14:47:59.328Z,6.30
2017-11-19T14:50:26.868Z,6.20
2017-11-19T14:52:54.364Z,6.20
2017-11-19T14:55:21.872Z,6.10
2017-11-19T14:57:49.448Z,6.10
2017-11-19T15:00:16.949Z,6.10
2017-11-19T15:02:45.216Z,5.90
2017-11-19T15:05:12.761Z,5.90
2017-11-19T15:07:40.266Z,5.80
2017-11-19T15:10:08.301Z,5.70
2017-11-19T15:12:36.217Z,5.60
2017-11-19T15:15:03.716Z,5.60
2017-11-19T15:17:31.224Z,5.50
2017-11-19T15:19:58.774Z,5.50
2017-11-19T15:22:26.284Z,5.40
2017-11-19T15:24:53.784Z,5.30
2017-11-19T15:27:21.108Z,5.20
2017-11-19T15:29:48.612Z,5.20
2017-11-19T15:32:16.117Z,5.30
2017-11-19T15:34:43.676Z,5.30
2017-11-19T15:37:11.488Z,5.20
2017-11-19T15:39:39.761Z,5.10
2017-11-19T15:42:08.077Z,5.10
2017-11-19T15:44:35.578Z,5.10
2017-11-19T15:47:03.882Z,5.00
2017-11-19T15:49:31.432Z,5.00
2017-11-19T15:51:58.936Z,5.00
2017-11-19T15:54:26.431Z,5.00
2017-11-19T15:56:54.000Z,5.00
2017-11-19T15:59:21.512Z,5.00
2017-11-19T16:01:49.013Z,5.10
2017-11-19T16:04:16.572Z,5.20
2017-11-19T16:06:44.924Z,5.10
2017-11-19T16:09:12.433Z,5.10
2017-11-19T16:11:39.988Z,5.10
2017-11-19T16:14:07.501Z,5.10
2017-11-19T16:16:35.009Z,5.00
2017-11-19T16:19:02.569Z,4.90
2017-11-19T16:21:30.073Z,4.80
2017-11-19T16:23:57.607Z,4.80
2017-11-19T16:26:25.261Z,4.70
2017-11-19T16:28:52.764Z,4.50
2017-11-19T16:31:20.269Z,4.40
2017-11-19T16:33:47.820Z,4.20
2017-11-19T16:36:15.325Z,4.10
2017-11-19T16:38:42.832Z,4.00
2017-11-19T16:41:10.472Z,3.90
2017-11-19T16:43:37.972Z,3.80
2017-11-19T16:46:05.485Z,3.70
2017-11-19T16:48:33.044Z,3.60
2017-11-19T16:51:00.557Z,3.50
2017-11-19T16:53:28.064Z,3.40
2017-11-19T16:55:55.608Z,3.40
2017-11-19T16:58:23.118Z,3.30
2017-11-19T17:00:50.640Z,3.20
2017-11-19T17:03:18.201Z,3.10
2017-11-19T17:05:45.717Z,3.10
2017-11-19T17:08:13.239Z,3.20
2017-11-19T17:10:40.768Z,3.20
2017-11-19T17:13:08.277Z,3.30
2017-11-19T17:15:35.780Z,3.40
2017-11-19T17:18:03.353Z,3.50
2017-11-19T17:20:31.629Z,3.60
2017-11-19T17:22:59.132Z,3.50
2017-11-19T17:25:26.789Z,3.50
2017-11-19T17:27:54.303Z,3.50
2017-11-19T17:30:21.921Z,3.50
2017-11-19T17:32:49.471Z,3.50
2017-11-19T17:35:16.985Z,3.50
2017-11-19T17:37:44.492Z,3.50
2017-11-19T17:40:12.322Z,3.40
2017-11-19T17:42:40.600Z,3.30
2017-11-19T17:45:08.871Z,3.20
2017-11-19T17:47:37.201Z,3.30
2017-11-19T17:50:04.709Z,3.30
2017-11-19T17:52:32.228Z,3.40
2017-11-19T17:54:59.793Z,3.50
2017-11-19T17:57:27.300Z,3.60
2017-11-19T17:59:54.804Z,3.60
2017-11-19T18:02:22.368Z,3.70
2017-11-19T18:04:49.869Z,3.70
2017-11-19T18:07:17.372Z,3.80
2017-11-19T18:09:45.041Z,3.90
2017-11-19T18:12:12.560Z,3.90
2017-11-19T18:14:40.099Z,3.90
2017-11-19T18:17:07.744Z,4.00
2017-11-19T18:19:35.260Z,4.00
2017-11-19T18:22:02.764Z,4.10
2017-11-19T18:24:30.415Z,4.10
2017-11-19T18:26:57.912Z,4.10
2017-11-19T18:29:25.416Z,4.10
2017-11-19T18:31:52.960Z,4.10
2017-11-19T18:34:20.461Z,4.10
2017-11-19T18:36:47.961Z,4.20
2017-11-19T18:39:15.521Z,4.10
2017-11-19T18:41:43.042Z,4.20
2017-11-19T18:44:10.548Z,4.10
2017-11-19T18:46:38.112Z,4.10
2017-11-19T18:49:05.615Z,4.20
2017-11-19T18:51:33.120Z,4.20
2017-11-19T18:54:00.692Z,4.10
2017-11-19T18:56:28.205Z,4.10
2017-11-19T18:58:55.712Z,4.10
2017-11-19T19:01:23.886Z,4.10
2017-11-19T19:03:51.389Z,4.00
2017-11-19T19:06:18.892Z,4.00
2017-11-19T19:08:46.544Z,4.00
2017-11-19T19:11:14.047Z,4.00
2017-11-19T19:13:41.549Z,4.00
2017-11-19T19:16:09.104Z,3.90
2017-11-19T19:18:37.384Z,3.90
2017-11-19T19:21:05.655Z,4.00
2017-11-19T19:23:33.980Z,3.90
2017-11-19T19:26:01.483Z,3.90
2017-11-19T19:28:28.988Z,3.90
2017-11-19T19:30:56.651Z,3.80
2017-11-19T19:33:24.169Z,3.80
2017-11-19T19:35:51.675Z,3.80
2017-11-19T19:38:19.241Z,3.80
2017-11-19T19:40:46.748Z,3.80
2017-11-19T19:43:14.252Z,3.80
2017-11-19T19:45:41.808Z,3.80
2017-11-19T19:48:09.309Z,3.80
2017-11-19T19:50:37.588Z,3.70
2017-11-19T19:53:06.241Z,3.80
2017-11-19T19:55:33.746Z,3.80
2017-11-19T19:58:02.306Z,3.80
2017-11-19T20:00:29.871Z,3.70
2017-11-19T20:02:58.157Z,3.90
2017-11-19T20:05:25.674Z,3.80
2017-11-19T20:07:53.234Z,3.90
2017-11-19T20:10:20.750Z,4.00
2017-11-19T20:12:48.266Z,4.00
2017-11-19T20:15:15.860Z,3.90
2017-11-19T20:17:44.210Z,3.90
2017-11-19T20:20:11.736Z,3.90
2017-11-19T20:22:39.320Z,4.00
2017-11-19T20:25:06.834Z,4.00
2017-11-19T20:27:34.649Z,4.00
2017-11-19T20:30:02.188Z,4.00
2017-11-19T20:32:29.731Z,4.00
2017-11-19T20:34:57.236Z,4.00
2017-11-19T20:37:26.308Z,4.10
2017-11-19T20:39:54.402Z,4.10
2017-11-19T20:42:22.040Z,4.10
2017-11-19T20:44:50.128Z,4.20
2017-11-19T20:47:17.633Z,4.20
2017-11-19T20:49:45.202Z,4.20
2017-11-19T20:52:12.820Z,4.20
2017-11-19T20:54:40.343Z,4.20
2017-11-19T20:57:08.460Z,4.20
2017-11-19T20:59:35.987Z,4.20
2017-11-19T21:02:04.383Z,4.20
2017-11-19T21:04:33.413Z,4.20
2017-11-19T21:07:00.928Z,4.20
2017-11-19T21:09:28.492Z,4.20
2017-11-19T21:11:55.993Z,4.20
2017-11-19T21:14:23.500Z,4.20
2017-11-19T21:16:51.062Z,4.20
2017-11-19T21:19:18.559Z,4.20
2017-11-19T21:21:46.068Z,4.20
2017-11-19T21:24:13.617Z,4.20
2017-11-19T21:26:41.128Z,4.30
2017-11-19T21:29:08.623Z,4.40
2017-11-19T21:31:36.180Z,4.40
2017-11-19T21:34:03.684Z,4.30
2017-11-19T21:36:31.208Z,4.40
2017-11-19T21:38:58.772Z,4.30
2017-11-19T21:41:26.271Z,4.30
2017-11-19T21:43:55.053Z,4.30
2017-11-19T21:46:22.800Z,4.30
2017-11-19T21:48:50.307Z,4.30
2017-11-19T21:51:17.828Z,4.30
2017-11-19T21:53:46.883Z,4.30
2017-11-19T21:56:14.496Z,4.30
2017-11-19T21:58:42.088Z,4.30
2017-11-19T22:01:10.104Z,4.30
2017-11-19T22:03:38.372Z,4.30
2017-11-19T22:06:05.892Z,4.20
2017-11-19T22:08:34.440Z,4.20
2017-11-19T22:11:01.969Z,4.20
2017-11-19T22:13:29.651Z,4.20
2017-11-19T22:15:57.560Z,4.20
2017-11-19T22:18:25.073Z,4.20
2017-11-19T22:20:52.572Z,4.20
2017-11-19T22:23:20.109Z,4.20
2017-11-19T22:25:47.619Z,4.30
2017-11-19T22:28:15.157Z,4.20
2017-11-19T22:30:43.152Z,4.30
2017-11-19T22:33:10.670Z,4.20
2017-11-19T22:35:38.168Z,4.20
2017-11-19T22:38:06.184Z,4.20
2017-11-19T22:40:33.684Z,4.20
2017-11-19T22:43:01.229Z,4.20
2017-11-19T22:45:29.125Z,4.20
2017-11-19T22:47:56.620Z,4.20
2017-11-19T22:50:24.120Z,4.20
2017-11-19T22:52:51.661Z,4.20
2017-11-19T22:55:19.484Z,4.30
2017-11-19T22:57:46.998Z,4.20
2017-11-19T23:00:14.556Z,4.20
2017-11-19T23:02:42.069Z,4.20
2017-11-19T23:05:09.571Z,4.30
2017-11-19T23:07:37.119Z,4.30
2017-11-19T23:10:06.141Z,4.30
2017-11-19T23:12:33.674Z,4.30
2017-11-19T23:15:01.976Z,4.30
2017-11-19T23:17:30.088Z,4.30
2017-11-19T23:19:57.588Z,4.30
2017-11-19T23:22:25.166Z,4.30
2017-11-19T23:24:52.688Z,4.30
2017-11-19T23:27:20.219Z,4.30
2017-11-19T23:29:47.777Z,4.30
2017-11-19T23:32:15.285Z,4.30
2017-11-19T23:34:42.792Z,4.30
2017-11-19T23:37:10.352Z,4.30
2017-11-19T23:39:38.024Z,4.30
2017-11-19T23:42:05.531Z,4.30
2017-11-19T23:44:33.076Z,4.30
2017-11-19T23:47:01.348Z,4.30
2017-11-19T23:49:29.683Z,4.30
2017-11-19T23:51:57.180Z,4.30
2017-11-19T23:54:24.903Z,4.20
2017-11-19T23:56:52.490Z,4.30
2017-11-19T23:59:19.985Z,4.30
